AirNav  
 
 846 users online  

74R Horizon Airport
San Antonio, Texas, USA

GOING TO SAN ANTONIO?


FAA INFORMATION EFFECTIVE 07 DECEMBER 2017

Location

FAA Identifier: 74R
Lat/Long: 29-17-04.5000N / 098-29-53.9000W
29-17.075000N / 098-29.898333W
29.2845833 / -98.4983056
(estimated)
Elevation: 551 ft. / 168 m (estimated)
Variation: 07E (1985)
From city: 9 miles S of SAN ANTONIO, TX
Time zone: UTC -6 (UTC -5 during Daylight Saving Time)
Zip code: 78221

Airport Operations

Airport use: Open to the public
Activation date: 04/1945
Control tower: no
ARTCC: HOUSTON CENTER
FSS: SAN ANGELO FLIGHT SERVICE STATION
NOTAMs facility: SJT (NOTAM-D service available)
Attendance: CONTINUOUS
Wind indicator: yes
Segmented circle: no

Airport Communications

CTAF: 122.9
WX ASOS at SSF (3 nm NE): PHONE 210-927-9391
WX ASOS at SAT (15 nm N): PHONE 210-805-5583
WX AWOS-3 at CVB (19 nm W): 119.25 (830-931-0232)
WX AWOS-3 at PEZ (20 nm S): 118.575 (830-569-5749)

Nearby radio navigation aids

VOR radial/distance  VOR name  Freq  Var
SSFr290/(3.3)STINSON VOR108.4009E
RNDr213/18.0RANDOLPH VORTAC112.3005E
SATr177/21.7SAN ANTONIO VORTAC116.8008E

 
NDB name  Hdg/Dist  Freq  Var  ID
DEVINE062/24.735907EHHH .... .... ....
HONDO091/35.632908EHMA .... -- .-

Airport Services

Parking: hangars and tiedowns
Bottled oxygen: NONE
Bulk oxygen: NONE

Runway Information

Runway 11/29

Dimensions: 2360 x 80 ft. / 719 x 24 m
Surface: turf, in good condition
Gradient: W
RUNWAY 11  RUNWAY 29
Latitude: 29-17.161922N29-16.982842N
Longitude: 098-30.013272W098-29.618742W
Elevation: 551.0 ft.540.0 ft.
Gradient: 0.4%0.5% UP
Traffic pattern: leftleft
Runway heading: 110 magnetic, 117 true290 magnetic, 297 true
Obstructions: 5 ft. fence, 119 ft. from runway, 137 ft. right of centerline, 23:1 slope to clear19 ft. trees

Runway 16/34

Dimensions: 2250 x 100 ft. / 686 x 30 m
Surface: turf, in good condition
Gradient: N
RUNWAY 16  RUNWAY 34
Latitude: 29-17.255087N29-16.899377N
Longitude: 098-30.046423W098-29.924860W
Elevation: 551.0 ft.529.0 ft.
Gradient: 0.4%1.0% UP
Traffic pattern: leftleft
Runway heading: 156 magnetic, 163 true336 magnetic, 343 true
Obstructions: 36 ft. trees, 110 ft. from runway, 70 ft. left of centerline, 3:1 slope to clear46 ft. trees, 522 ft. from runway, 11:1 slope to clear

Airport Ownership and Management from official FAA records

Ownership: Privately-owned
Owner: TOUDOUZE INVESTMENTS INC
PO BOX 380332
SAN ANTONIO, TX 78268
Phone (210) 859-9946
MANAGING PARTNER WILLIAM S. TOUDOUZE.
Manager: 13680 PLEASANTON RD.
SAN ANTONIO, TX 78221
Phone (210) 859-9946

Airport Operational Statistics

Aircraft based on the field: 3
Single engine airplanes: 3
    
Aircraft operations: 140/year *
71% local general aviation
29% transient general aviation
* for 12-month period ending 02 February 2017

Additional Remarks

RY THLDS MARKED BY 3 FT WHITE CONES.
NO LINE OF SIGHT BETWEEN RYS 34 & 29
WILD HOGS ON OR INVOF ARPT.
FOR CD CTC SAT APCH AT 210-805-5516.
NO COMMERCIAL FLIGHT SERVICE.

Instrument Procedures

There are no published instrument procedures at 74R.

Some nearby airports with instrument procedures:

KSSF - Stinson Municipal Airport (3 nm NE)
KSKF - Kelly Field Airport (7 nm NW)
KSAT - San Antonio International Airport (15 nm N)
KRND - Randolph Air Force Base (19 nm NE)
KCVB - Castroville Municipal Airport (19 nm W)
KPEZ - Pleasanton Municipal Airport (20 nm S)
 
Loc | Ops | Rwys | IFR | FBO | Links
Com | Nav | Svcs | Stats | Notes


 
Area around 74R (Horizon Airport)
 
Road maps at: MapQuest Bing Google
 
Aerial photo
WARNING: Photo may not be current or correct
Aerial photo of 74R (Horizon Airport)
Photo by Bill Lux at Bull's Nest, Inc.
Photo taken 24-Oct-2013
looking east.

Do you have a better or more recent aerial photo of Horizon Airport that you would like to share? If so, please send us your photo.

 
Sectional chart

 
Airport distance calculator
Flying to Horizon Airport? Find the distance to fly.

From to 74R

Sunrise and sunset
Times for 17-Dec-2017
 Local
(UTC-6)
 Zulu
(UTC)
Morning civil twilight06:5712:57
Sunrise07:2313:23
Sunset17:3723:37
Evening civil twilight18:0300:03

Current date and time
Zulu (UTC)  18-Dec-2017 02:59:16
Local (UTC-6)  17-Dec-2017 20:59:16
 
METAR
KSSF 
3nm NE 
180253Z 20003KT 6SM BR OVC004 11/09 A3010 RMK AO2 SLP196 T01060094 50005
KSKF 
6nm NW 
180256Z AUTO 16004KT 3SM R34/6000FT BR OVC002 10/09 A3010 RMK AO2 SLP194 T00980092 52021 $
KSAT 
15nm N 
180251Z 16006KT 1/4SM R13R/5500VP6000FT BR OVC002 09/09 A3012 RMK AO2 SFC VIS 1 SLP190 T00940089 51022 $
KRND 
18nm NE 
180256Z AUTO 18005KT 1 1/2SM R15L/3500FT BR OVC002 10/09 A3012 RMK AO2 VIS 1 1/2V2 1/2 VIS 1/2 RWY15R VIS 3/4 RWY33L SLP201 T00950089 52023 $
KCVB 
19nm W 
180255Z AUTO 16003KT 3/4SM BR OVC002 10/10 A3013 RMK AO2 T00970097
KPEZ 
20nm S 
180255Z AUTO 00000KT 3SM BR OVC003 10/10 A3013 RMK AO2 T01000100
TAF
KSSF 
3nm NE 
180201Z 1802/1824 00000KT 5SM BR OVC003 FM180500 VRB03KT 1SM -DZ BR OVC003 FM181800 09004KT 4SM BR OVC005 FM182100 12004KT P6SM VCSH BKN010
KSKF 
6nm NW 
180200Z 1802/1908 VRB06KT 9999 OVC003 QNH3000INS BECMG 1805/1806 16006KT 4800 BR OVC003 QNH3010INS BECMG 1816/1817 11009KT 9999 NSW SCT005 BKN010 QNH3010INS BECMG 1902/1903 VRB06KT 4800 -RA BKN005 OVC010 QNH3012INS TX13/1821Z TN09/1812Z
KSAT 
15nm N 
180135Z 1802/1906 17005KT 4SM BR OVC004 FM180500 VRB03KT 1SM -DZ BR OVC003 FM181800 09004KT 4SM BR OVC005 FM182100 12004KT P6SM VCSH BKN010 FM190300 09004KT 4SM BR VCSH OVC005
KRND 
18nm NE 
172200Z 1722/1824 18003KT 9999 OVC008 QNH3002INS TEMPO 1722/1724 OVC025 BECMG 1723/1724 VRB03KT 9999 OVC015 QNH3006INS TEMPO 1815/1821 8000 -SHRA TX16/1722Z TN09/1812Z LAST NO AMDS AFT 1723 NEXT 1810
NOTAMs
Click for the latest NOTAMs
NOTAMs are issued by the DoD/FAA and will open in a separate window not controlled by AirNav.

 

 
 

Would you like to see your business listed on this page?

 If your business provides an interesting product or service to pilots, flight crews, aircraft, or users of the Horizon Airport, you should consider listing it here.  To start the listing process, click on the button below
 
Add a business
 

Other Pages about Horizon Airport

Update a link
 
Copyright © AirNav, LLC. All rights reserved. Privacy Policy  Contact